This demonstration page uses our WeatherBlox Daily Observations layout. Learn more.

38.88101, -77.10428

Hourly Observations for August 24, 2016

Temp ( °F °C ) Dew Point ( °F °C ) Humidity (%) Winds ( mph kmh ) Pressure ( in mb ) Visibility ( mi km ) Precip ( " mm )
12:52 am 00:52 Clear 72 22.2 60 15.6 66 66 SW 3 6 30.3 1026 10 16.09344 0 0
1:52 am 01:52 Clear 71 21.7 61 16.1 71 71 SW 3 6 30.3 1026 10 16.09344 0 0
2:52 am 02:52 Mostly Clear 70 21.1 63 17.2 79 79 S 5 7 30.3 1026 10 16.09344 0 0
3:52 am 03:52 Mostly Clear 70 21.1 63 17.2 79 79 Calm 30.27 1025 10 16.09344 0 0
4:52 am 04:52 Mostly Clear 68 20 63 17.2 84 84 SW 5 7 30.27 1025 10 16.09344 0 0
5:52 am 05:52 Partly Cloudy 69 20.6 62 16.7 78 78 SSW 3 6 30.3 1026 10 16.09344 0 0
6:52 am 06:52 Partly Cloudy 68 20 62 16.7 81 81 SW 3 6 30.3 1026 10 16.09344 0 0
7:52 am 07:52 Partly Cloudy 71 21.7 63 17.2 76 76 SSW 6 9 30.33 1027 10 16.09344 0 0
8:52 am 08:52 Mostly Sunny 74 23.3 61 16.1 64 64 SSW 9 15 30.33 1027 10 16.09344 0 0
9:52 am 09:52 Mostly Sunny 78 25.6 62 16.7 58 58 S 9 15 30.3 1026 10 16.09344 0 0
10:52 am 10:52 Partly Cloudy 80 26.7 64 17.8 58 58 S 13 20 30.3 1026 10 16.09344 0 0
11:52 am 11:52 Partly Cloudy 82 27.8 62 16.7 51 51 S 12 19 30.3 1026 10 16.09344 0 0
12:52 pm 12:52 Mostly Cloudy 83 28.3 64 17.8 53 53 S 12 19 30.27 1025 10 16.09344 0 0
1:52 pm 13:52 Partly Cloudy 84 28.9 65 18.3 53 53 S 12 19 30.24 1024 10 16.09344 0 0
2:52 pm 14:52 Mostly Cloudy 85 29.4 65 18.3 51 51 S 13 20 30.24 1024 10 16.09344 0 0
3:52 pm 15:52 Mostly Cloudy 84 28.9 65 18.3 53 53 SSE 10 17 30.21 1023 10 16.09344 0 0
4:52 pm 16:52 Mostly Cloudy 86 30 66 18.9 51 51 S 13 20 30.18 1022 10 16.09344 0 0
5:52 pm 17:52 Mostly Cloudy 83 28.3 66 18.9 57 57 S 9 15 30.18 1022 10 16.09344 0 0
6:52 pm 18:52 Mostly Cloudy 83 28.3 66 18.9 57 57 S 12 19 30.18 1022 10 16.09344 0 0
7:52 pm 19:52 Mostly Cloudy 81 27.2 66 18.9 61 61 S 12 19 30.18 1022 10 16.09344 0 0
8:52 pm 20:52 Partly Cloudy 78 25.6 65 18.3 64 64 S 13 20 30.21 1023 10 16.09344 0 0
9:52 pm 21:52 Mostly Clear 77 25 62 16.7 60 60 S 10 17 30.18 1022 10 16.09344 0 0
10:52 pm 22:52 Clear 76 24.4 62 16.7 62 62 S 13 20 30.18 1022 10 16.09344 0 0
11:52 pm 23:52 Clear 74 23.3 63 17.2 69 69 SSW 10 17 30.18 1022 10 16.09344 0 0

Powered by AerisWeather